Bird City, KS

11:19 AM CDT on March 29, 2015 (GMT -0500)
APRSWXNET Bird City KS US | | Change Station
CLOSE
Current Station
Personal Weather Station
Location: Bird City, KS
Elevation: 3512 ft
Nearby Weather Stations

Elev 3512 ft 39.76 °N, 101.59 °W | Updated 37 minutes ago

Clear
Clear
53 °F
Feels Like 53 °F
N
27
Wind Variable Wind from NW
Gusts 36.0 mph

Today
High -- | Low -- °F
--% Chance of Precip.
Yesterday
High -- | Low -- °F
Precip. -- in
7:35 AM 8:07 PM
Waxing Gibbous, 72% visible
Pressure 30.24 in
Visibility 10.0 miles
Clouds Clear
Dew Point 31 °F
Humidity 43%
Rainfall in
Snow Depth Not available.
UV 5 out of 12
Pollen 11.00 out of 12
Air Quality Not available.
Flu Activity Not available.
METAR KSYF 291555Z AUTO 33023G28KT 10SM CLR 13/M05 A3024 RMK AO2 T01251049

More Conditions Fewer Conditions

Pressure 30.24 in
Visibility 10.0 miles
Clouds Clear
Dew Point 31 °F
Humidity 43%
Rainfall in
Snow Depth Not available.
UV 5 out of 12
Pollen 11.00 out of 12
Air Quality Not available.
Flu Activity Not available.
METAR KSYF 291555Z AUTO 33023G28KT 10SM CLR 13/M05 A3024 RMK AO2 T01251049

More Conditions Fewer Conditions

10-Day Weather Forecast

Almanac

Astronomy

Mar. 29, 2015 Rise Set
Actual Time
Civil Twilight
Nautical Twilight
Astronomical Twilight
Moon
Length of Visible Light
Length of Day
Tomorrow will be .
, % of the Moon is Illuminated

Today's Extremes

State Highs State Lows

Community

WunderPhotos

Upload Photos

1,809,279 photos uploaded!

WunderBlogs® & News

Nearby

Air Quality

  Air Quality AQ Index Pollutant
Not available.

Snow Depth

Station Depth Elevation

Earthquake Activity

City Distance Mag. Time & Date
Minimum magnitude displayed is 2.5.

Coastal Water Temperatures

Place Temperature

Stations

Nearby Weather Stations

Station Location Temp. Windchill Dew Point Humidity Wind Precip. Elev Updated Type